createdAt,value
2018-12-16T00:00:13.209Z,54.70
2018-12-16T00:02:46.953Z,54.70
2018-12-16T00:05:22.662Z,54.70
2018-12-16T00:07:52.509Z,54.80
2018-12-16T00:10:20.638Z,54.70
2018-12-16T00:12:48.750Z,54.80
2018-12-16T00:15:20.374Z,54.70
2018-12-16T00:17:48.493Z,54.80
2018-12-16T00:20:16.612Z,54.80
2018-12-16T00:22:44.810Z,54.90
2018-12-16T00:25:16.110Z,54.90
2018-12-16T00:27:44.233Z,55.00
2018-12-16T00:30:18.938Z,54.90
2018-12-16T00:32:47.050Z,54.90
2018-12-16T00:35:23.091Z,54.90
2018-12-16T00:37:56.926Z,54.90
2018-12-16T00:40:28.285Z,54.80
2018-12-16T00:42:56.433Z,54.90
2018-12-16T00:45:36.584Z,54.90
2018-12-16T00:48:11.090Z,54.90
2018-12-16T00:50:51.162Z,54.80
2018-12-16T00:53:31.806Z,54.90
2018-12-16T00:56:06.141Z,54.90
2018-12-16T00:58:35.725Z,54.80
2018-12-16T01:01:09.990Z,54.70
2018-12-16T01:03:43.754Z,54.80
2018-12-16T01:06:21.572Z,55.00
2018-12-16T01:09:04.472Z,54.90
2018-12-16T01:11:35.945Z,54.90
2018-12-16T01:14:10.423Z,54.90
2018-12-16T01:16:44.412Z,54.80
2018-12-16T01:19:22.402Z,54.90
2018-12-16T01:21:57.409Z,54.90
2018-12-16T01:24:35.364Z,55.00
2018-12-16T01:27:11.346Z,55.00
2018-12-16T01:29:43.006Z,55.00
2018-12-16T01:32:20.597Z,55.20
2018-12-16T01:34:54.522Z,55.10
2018-12-16T01:37:25.982Z,55.10
2018-12-16T01:39:54.106Z,55.10
2018-12-16T01:42:22.218Z,55.00
2018-12-16T01:44:50.353Z,55.10
2018-12-16T01:47:22.396Z,54.90
2018-12-16T01:49:50.573Z,54.90
2018-12-16T01:52:18.722Z,55.00
2018-12-16T01:54:46.874Z,55.00
2018-12-16T01:57:18.053Z,54.90
2018-12-16T01:59:46.187Z,54.90
2018-12-16T02:02:14.298Z,55.00
2018-12-16T02:04:42.445Z,55.10
2018-12-16T02:07:13.832Z,55.10
2018-12-16T02:09:41.957Z,55.20
2018-12-16T02:12:10.071Z,55.10
2018-12-16T02:14:38.213Z,55.10
2018-12-16T02:17:10.190Z,55.20
2018-12-16T02:19:38.341Z,55.30
2018-12-16T02:22:06.461Z,55.30
2018-12-16T02:24:34.619Z,55.30
2018-12-16T02:27:06.582Z,55.40
2018-12-16T02:29:34.726Z,55.50
2018-12-16T02:32:02.890Z,55.30
2018-12-16T02:34:31.042Z,55.30
2018-12-16T02:37:05.507Z,55.40
2018-12-16T02:39:33.779Z,55.40
2018-12-16T02:42:02.064Z,55.50
2018-12-16T02:44:30.351Z,55.60
2018-12-16T02:47:07.952Z,55.50
2018-12-16T02:49:39.914Z,55.60
2018-12-16T02:52:08.096Z,55.60
2018-12-16T02:54:36.375Z,55.60
2018-12-16T02:57:08.350Z,55.70
2018-12-16T02:59:36.522Z,55.60
2018-12-16T03:02:04.634Z,55.70
2018-12-16T03:04:32.789Z,55.50
2018-12-16T03:07:04.867Z,55.60
2018-12-16T03:09:33.070Z,55.60
2018-12-16T03:12:01.282Z,55.50
2018-12-16T03:14:29.510Z,55.70
2018-12-16T03:17:01.421Z,56.00
2018-12-16T03:19:29.580Z,55.60
2018-12-16T03:21:57.705Z,55.50
2018-12-16T03:24:25.664Z,55.60
2018-12-16T03:26:56.835Z,55.60
2018-12-16T03:29:24.962Z,55.60
2018-12-16T03:31:53.147Z,55.60
2018-12-16T03:34:21.527Z,55.80
2018-12-16T03:36:53.399Z,55.80
2018-12-16T03:39:21.633Z,55.80
2018-12-16T03:41:49.757Z,55.50
2018-12-16T03:44:17.903Z,55.50
2018-12-16T03:46:49.075Z,55.50
2018-12-16T03:49:17.268Z,55.50
2018-12-16T03:51:45.385Z,55.80
2018-12-16T03:54:13.533Z,55.80
2018-12-16T03:56:45.574Z,55.80
2018-12-16T03:59:18.106Z,55.80
2018-12-16T04:01:50.548Z,55.90
2018-12-16T04:04:18.818Z,55.80
2018-12-16T04:06:50.497Z,55.90
2018-12-16T04:09:18.662Z,56.00
2018-12-16T04:11:46.812Z,56.10
2018-12-16T04:14:14.969Z,56.00
2018-12-16T04:16:47.047Z,56.00
2018-12-16T04:19:15.175Z,55.90
2018-12-16T04:21:43.325Z,55.80
2018-12-16T04:24:11.546Z,55.90
2018-12-16T04:26:43.586Z,55.80
2018-12-16T04:29:11.730Z,55.80
2018-12-16T04:31:39.874Z,56.00
2018-12-16T04:34:08.112Z,56.00
2018-12-16T04:36:40.337Z,56.10
2018-12-16T04:39:08.458Z,56.10
2018-12-16T04:41:36.595Z,56.10
2018-12-16T04:44:04.754Z,56.00
2018-12-16T04:46:36.337Z,55.90
2018-12-16T04:49:04.490Z,56.10
2018-12-16T04:51:32.666Z,56.20
2018-12-16T04:54:13.579Z,56.10
2018-12-16T04:56:45.317Z,56.20
2018-12-16T04:59:20.048Z,56.20
2018-12-16T05:01:51.405Z,56.20
2018-12-16T05:04:21.427Z,56.30
2018-12-16T05:06:53.050Z,56.30
2018-12-16T05:09:21.958Z,56.30
2018-12-16T05:11:50.067Z,56.30
2018-12-16T05:14:18.186Z,56.30
2018-12-16T05:16:49.501Z,56.30
2018-12-16T05:19:17.631Z,56.20
2018-12-16T05:21:45.728Z,56.30
2018-12-16T05:24:13.822Z,56.30
2018-12-16T05:26:45.234Z,56.40
2018-12-16T05:29:13.390Z,56.40
2018-12-16T05:31:41.573Z,56.40
2018-12-16T05:34:09.691Z,56.30
2018-12-16T05:36:41.028Z,56.30
2018-12-16T05:39:09.158Z,56.30
2018-12-16T05:41:37.346Z,56.30
2018-12-16T05:44:05.479Z,56.30
2018-12-16T05:46:36.762Z,56.40
2018-12-16T05:49:04.923Z,56.40
2018-12-16T05:51:33.078Z,56.50
2018-12-16T05:54:01.779Z,56.40
2018-12-16T05:56:33.046Z,56.40
2018-12-16T05:59:01.301Z,56.50
2018-12-16T06:01:29.437Z,56.40
2018-12-16T06:03:57.582Z,56.50
2018-12-16T06:06:29.537Z,56.50
2018-12-16T06:08:57.650Z,56.70
2018-12-16T06:11:25.770Z,56.70
2018-12-16T06:13:53.892Z,56.60
2018-12-16T06:16:25.971Z,56.50
2018-12-16T06:18:54.082Z,56.50
2018-12-16T06:21:22.234Z,56.50
2018-12-16T06:23:55.543Z,56.50
2018-12-16T06:26:23.810Z,56.50
2018-12-16T06:28:51.922Z,56.40
2018-12-16T06:31:20.054Z,56.30
2018-12-16T06:33:48.184Z,56.30
2018-12-16T06:36:20.264Z,56.30
2018-12-16T06:38:49.058Z,56.30
2018-12-16T06:41:17.173Z,56.30
2018-12-16T06:43:45.313Z,56.30
2018-12-16T06:46:16.477Z,56.40
2018-12-16T06:48:44.577Z,56.40
2018-12-16T06:51:12.702Z,56.50
2018-12-16T06:53:40.794Z,56.50
2018-12-16T06:56:12.158Z,56.40
2018-12-16T06:58:40.275Z,56.50
2018-12-16T07:01:08.419Z,56.60
2018-12-16T07:03:36.567Z,56.50
2018-12-16T07:06:08.451Z,56.50
2018-12-16T07:08:36.567Z,56.50
2018-12-16T07:11:04.698Z,56.50
2018-12-16T07:13:32.831Z,56.60
2018-12-16T07:16:04.497Z,56.60
2018-12-16T07:18:32.594Z,56.60
2018-12-16T07:21:00.730Z,56.60
2018-12-16T07:23:29.315Z,56.80
2018-12-16T07:26:01.109Z,56.90
2018-12-16T07:28:29.234Z,56.80
2018-12-16T07:30:57.445Z,56.90
2018-12-16T07:33:25.586Z,56.90
2018-12-16T07:35:57.813Z,57.00
2018-12-16T07:38:26.010Z,57.10
2018-12-16T07:40:54.186Z,56.90
2018-12-16T07:43:22.286Z,56.90
2018-12-16T07:45:54.182Z,56.90
2018-12-16T07:48:22.358Z,57.00
2018-12-16T07:50:50.551Z,56.90
2018-12-16T07:53:18.758Z,56.90
2018-12-16T07:55:50.515Z,56.90
2018-12-16T07:58:18.611Z,57.00
2018-12-16T08:00:46.745Z,57.00
2018-12-16T08:03:14.926Z,57.00
2018-12-16T08:05:46.202Z,57.10
2018-12-16T08:08:14.305Z,57.10
2018-12-16T08:10:42.430Z,57.30
2018-12-16T08:13:10.531Z,57.30
2018-12-16T08:15:41.869Z,57.10
2018-12-16T08:18:09.964Z,57.20
2018-12-16T08:20:38.094Z,57.30
2018-12-16T08:23:06.219Z,57.20
2018-12-16T08:25:37.630Z,57.20
2018-12-16T08:28:05.760Z,57.10
2018-12-16T08:30:33.962Z,57.10
2018-12-16T08:33:02.064Z,57.10
2018-12-16T08:35:34.129Z,57.10
2018-12-16T08:38:02.262Z,57.10
2018-12-16T08:40:30.410Z,57.20
2018-12-16T08:42:58.533Z,57.20
2018-12-16T08:45:30.640Z,57.10
2018-12-16T08:47:58.774Z,57.10
2018-12-16T08:50:26.934Z,57.20
2018-12-16T08:52:55.041Z,57.20
2018-12-16T08:55:26.302Z,57.30
2018-12-16T08:57:54.460Z,57.30
2018-12-16T09:00:22.618Z,57.20
2018-12-16T09:02:50.725Z,57.30
2018-12-16T09:05:21.955Z,57.30
2018-12-16T09:07:50.138Z,57.40
2018-12-16T09:10:18.408Z,57.30
2018-12-16T09:12:46.630Z,57.20
2018-12-16T09:15:18.613Z,57.30
2018-12-16T09:17:46.746Z,57.20
2018-12-16T09:20:14.874Z,57.00
2018-12-16T09:22:43.002Z,56.90
2018-12-16T09:25:14.185Z,57.00
2018-12-16T09:27:42.339Z,57.00
2018-12-16T09:30:11.557Z,56.90
2018-12-16T09:32:39.713Z,56.80
2018-12-16T09:35:11.678Z,56.70
2018-12-16T09:37:39.799Z,56.70
2018-12-16T09:40:08.269Z,56.80
2018-12-16T09:42:36.446Z,56.70
2018-12-16T09:45:05.172Z,56.70
2018-12-16T09:47:33.409Z,56.70
2018-12-16T09:50:01.567Z,56.80
2018-12-16T09:52:29.715Z,56.70
2018-12-16T09:54:57.912Z,56.60
2018-12-16T09:57:26.010Z,56.50
2018-12-16T09:59:58.059Z,56.50
2018-12-16T10:02:26.155Z,56.40
2018-12-16T10:04:54.563Z,56.40
2018-12-16T10:07:22.674Z,56.40
2018-12-16T10:09:50.781Z,56.50
2018-12-16T10:12:18.917Z,56.50
2018-12-16T10:14:47.050Z,56.60
2018-12-16T10:17:18.280Z,56.50
2018-12-16T10:19:46.505Z,56.60
2018-12-16T10:22:14.616Z,56.60
2018-12-16T10:24:42.773Z,56.50
2018-12-16T10:27:14.833Z,56.40
2018-12-16T10:29:43.130Z,56.50
2018-12-16T10:32:11.225Z,56.70
2018-12-16T10:34:39.410Z,56.70
2018-12-16T10:37:11.160Z,56.60
2018-12-16T10:39:39.306Z,56.50
2018-12-16T10:42:07.428Z,56.50
2018-12-16T10:44:35.576Z,56.40
2018-12-16T10:47:07.618Z,56.40
2018-12-16T10:49:35.771Z,56.60
2018-12-16T10:52:03.868Z,56.50
2018-12-16T10:54:32.121Z,56.50
2018-12-16T10:57:03.784Z,56.50
2018-12-16T10:59:31.969Z,56.60
2018-12-16T11:02:00.151Z,56.60
2018-12-16T11:04:28.308Z,56.70
2018-12-16T11:07:00.474Z,56.80
2018-12-16T11:09:28.639Z,56.80
2018-12-16T11:11:56.746Z,56.80
2018-12-16T11:14:25.919Z,56.90
2018-12-16T11:16:59.670Z,56.70
2018-12-16T11:19:31.013Z,56.70
2018-12-16T11:22:05.459Z,56.40
2018-12-16T11:24:39.585Z,56.80
2018-12-16T11:27:11.265Z,57.00
2018-12-16T11:29:43.125Z,57.60
2018-12-16T11:32:13.117Z,56.90
2018-12-16T11:34:55.906Z,56.80
2018-12-16T11:37:25.972Z,56.90
2018-12-16T11:40:04.539Z,56.90
2018-12-16T11:42:39.097Z,57.00
2018-12-16T11:45:10.806Z,57.10
2018-12-16T11:47:38.987Z,57.00
2018-12-16T11:50:07.210Z,57.10
2018-12-16T11:52:35.401Z,57.00
2018-12-16T11:55:03.593Z,57.10
2018-12-16T11:57:31.898Z,57.10
2018-12-16T12:00:00.099Z,56.80
2018-12-16T12:02:32.792Z,56.90
2018-12-16T12:04:58.544Z,56.90
2018-12-16T12:07:26.716Z,56.90
2018-12-16T12:09:54.954Z,57.00
2018-12-16T12:12:23.174Z,56.90
2018-12-16T12:14:51.365Z,57.00
2018-12-16T12:17:22.911Z,57.00
2018-12-16T12:19:58.298Z,57.00
2018-12-16T12:22:34.301Z,56.90
2018-12-16T12:25:09.152Z,56.90
2018-12-16T12:27:41.781Z,56.90
2018-12-16T12:30:11.206Z,57.00
2018-12-16T12:32:39.450Z,57.00
2018-12-16T12:35:10.985Z,56.90
2018-12-16T12:37:39.102Z,57.00
2018-12-16T12:40:07.330Z,57.00
2018-12-16T12:42:35.706Z,57.30
2018-12-16T12:45:04.003Z,57.40
2018-12-16T12:47:32.244Z,57.30
2018-12-16T12:50:00.369Z,57.40
2018-12-16T12:52:32.543Z,57.40
2018-12-16T12:55:00.708Z,57.50
2018-12-16T12:57:36.642Z,57.40
2018-12-16T13:00:09.777Z,57.30
2018-12-16T13:02:37.914Z,57.40
2018-12-16T13:05:10.049Z,57.50
2018-12-16T13:07:38.801Z,57.60
2018-12-16T13:10:09.055Z,57.60
2018-12-16T13:12:37.202Z,57.70
2018-12-16T13:15:06.482Z,57.60
2018-12-16T13:17:34.626Z,57.70
2018-12-16T13:20:09.062Z,57.50
2018-12-16T13:22:37.254Z,57.60
2018-12-16T13:26:12.082Z,57.70
2018-12-16T13:28:40.209Z,57.70
2018-12-16T13:31:08.389Z,57.70
2018-12-16T13:33:36.710Z,57.60
2018-12-16T13:36:12.173Z,57.40
2018-12-16T13:38:43.678Z,57.50
2018-12-16T13:43:45.350Z,57.50
2018-12-16T13:46:26.183Z,57.50
2018-12-16T13:49:08.794Z,57.40
2018-12-16T13:51:49.590Z,57.50
2018-12-16T13:54:24.031Z,57.60
2018-12-16T13:56:58.065Z,57.20
2018-12-16T13:59:44.720Z,57.20
2018-12-16T14:02:16.431Z,57.40
2018-12-16T14:04:50.840Z,57.50
2018-12-16T14:07:22.203Z,57.70
2018-12-16T14:10:03.005Z,57.80
2018-12-16T14:12:37.239Z,57.90
2018-12-16T14:15:08.524Z,57.80
2018-12-16T14:17:47.657Z,57.80
2018-12-16T14:20:15.927Z,58.20
2018-12-16T14:22:44.284Z,54.60
2018-12-16T14:25:16.130Z,57.00
2018-12-16T14:27:44.306Z,62.40
2018-12-16T14:30:12.470Z,57.20
2018-12-16T14:32:41.739Z,53.30
2018-12-16T14:35:17.869Z,49.80
2018-12-16T14:37:46.268Z,46.90
2018-12-16T14:40:14.553Z,47.20
2018-12-16T14:42:42.972Z,47.90
2018-12-16T14:45:19.656Z,48.60
2018-12-16T14:47:57.655Z,49.50
2018-12-16T14:50:27.673Z,49.50
2018-12-16T14:53:05.986Z,50.80
2018-12-16T14:55:39.788Z,50.60
2018-12-16T14:58:13.803Z,50.40
2018-12-16T15:00:43.054Z,51.00
2018-12-16T15:03:13.253Z,51.10
2018-12-16T15:05:44.879Z,50.70
2018-12-16T15:08:14.277Z,51.20
2018-12-16T15:10:42.595Z,51.70
2018-12-16T15:13:14.969Z,51.20
2018-12-16T15:15:46.569Z,51.40
2018-12-16T15:18:15.905Z,52.00
2018-12-16T15:20:44.427Z,51.90
2018-12-16T15:23:13.754Z,52.50
2018-12-16T15:25:44.921Z,52.50
2018-12-16T15:28:13.152Z,52.20
2018-12-16T15:30:41.411Z,52.30
2018-12-16T15:33:10.562Z,52.50
2018-12-16T15:35:48.234Z,52.60
2018-12-16T15:38:19.657Z,52.30
2018-12-16T15:40:58.132Z,52.70
2018-12-16T15:43:39.545Z,52.80
2018-12-16T15:46:09.298Z,52.70
2018-12-16T15:48:41.205Z,52.80
2018-12-16T15:51:13.264Z,53.40
2018-12-16T15:54:00.170Z,53.50
2018-12-16T15:56:28.298Z,53.60
2018-12-16T15:59:01.887Z,53.40
2018-12-16T16:01:36.015Z,53.60
2018-12-16T16:04:07.286Z,53.80
2018-12-16T16:06:38.515Z,53.70
2018-12-16T16:09:10.493Z,53.70
2018-12-16T16:11:42.365Z,53.70
2018-12-16T16:14:14.298Z,53.60
2018-12-16T16:16:55.249Z,53.50
2018-12-16T16:19:35.994Z,53.30
2018-12-16T16:22:05.845Z,53.20
2018-12-16T16:24:52.112Z,53.10
2018-12-16T16:27:32.645Z,53.40
2018-12-16T16:30:02.816Z,53.90
2018-12-16T16:32:34.568Z,54.00
2018-12-16T16:35:02.951Z,53.90
2018-12-16T16:37:32.666Z,53.50
2018-12-16T16:40:00.972Z,53.50
2018-12-16T16:42:29.175Z,53.80
2018-12-16T16:44:58.018Z,53.40
2018-12-16T16:47:26.745Z,53.60
2018-12-16T16:49:55.255Z,53.70
2018-12-16T16:52:24.140Z,53.50
2018-12-16T16:54:52.584Z,53.80
2018-12-16T16:57:24.683Z,54.00
2018-12-16T16:59:53.002Z,53.70
2018-12-16T17:02:21.159Z,54.30
2018-12-16T17:04:49.410Z,53.80
2018-12-16T17:07:21.168Z,53.60
2018-12-16T17:09:49.390Z,53.50
2018-12-16T17:12:18.502Z,54.00
2018-12-16T17:14:46.670Z,55.10
2018-12-16T17:17:17.863Z,55.30
2018-12-16T17:19:46.057Z,55.20
2018-12-16T17:22:14.493Z,55.50
2018-12-16T17:24:43.435Z,55.00
2018-12-16T17:27:18.065Z,55.00
2018-12-16T17:29:49.697Z,55.00
2018-12-16T17:32:21.698Z,54.80
2018-12-16T17:34:49.965Z,54.70
2018-12-16T17:37:21.854Z,55.10
2018-12-16T17:39:50.037Z,55.50
2018-12-16T17:42:18.278Z,55.40
2018-12-16T17:44:46.543Z,55.30
2018-12-16T17:47:20.842Z,55.10
2018-12-16T17:49:49.145Z,55.00
2018-12-16T17:52:17.293Z,55.40
2018-12-16T17:54:45.466Z,55.30
2018-12-16T17:57:16.796Z,55.10
2018-12-16T17:59:44.950Z,54.90
2018-12-16T18:02:13.147Z,55.30
2018-12-16T18:04:41.608Z,55.20
2018-12-16T18:07:13.308Z,55.20
2018-12-16T18:09:41.685Z,55.10
2018-12-16T18:12:10.834Z,55.40
2018-12-16T18:14:39.430Z,55.60
2018-12-16T18:17:11.270Z,55.60
2018-12-16T18:19:39.559Z,55.40
2018-12-16T18:22:13.879Z,55.60
2018-12-16T18:24:42.228Z,55.70
2018-12-16T18:27:14.388Z,56.00
2018-12-16T18:29:42.747Z,59.00
2018-12-16T18:32:11.060Z,58.00
2018-12-16T18:34:41.226Z,56.70
2018-12-16T18:37:13.484Z,55.70
2018-12-16T18:39:44.739Z,55.70
2018-12-16T18:42:19.611Z,55.70
2018-12-16T18:44:47.990Z,55.60
2018-12-16T18:47:32.266Z,55.80
2018-12-16T18:50:03.821Z,56.00
2018-12-16T18:52:40.152Z,56.00
2018-12-16T18:58:13.815Z,56.10
2018-12-16T19:03:55.056Z,55.70
2018-12-16T19:06:38.805Z,56.20
2018-12-16T19:09:11.505Z,56.50
2018-12-16T19:11:41.658Z,56.60
2018-12-16T19:14:09.869Z,57.10
2018-12-16T19:16:45.054Z,57.20
2018-12-16T19:19:21.141Z,57.70
2018-12-16T19:21:55.855Z,57.60
2018-12-16T19:24:25.575Z,57.00
2018-12-16T19:26:58.403Z,57.10
2018-12-16T19:29:36.941Z,57.40
2018-12-16T19:32:14.755Z,57.80
2018-12-16T19:34:50.649Z,58.20
2018-12-16T19:37:20.281Z,58.20
2018-12-16T19:39:56.796Z,57.80
2018-12-16T19:42:28.293Z,57.50
2018-12-16T19:45:11.214Z,58.00
2018-12-16T19:47:49.565Z,58.30
2018-12-16T19:50:23.631Z,59.00
2018-12-16T19:52:55.155Z,58.60
2018-12-16T19:55:31.457Z,58.40
2018-12-16T19:58:09.570Z,58.70
2018-12-16T20:00:40.958Z,58.20
2018-12-16T20:03:11.053Z,58.80
2018-12-16T20:05:47.897Z,58.90
2018-12-16T20:08:16.239Z,59.00
2018-12-16T20:10:44.374Z,58.80
2018-12-16T20:13:12.535Z,58.70
2018-12-16T20:15:44.305Z,59.20
2018-12-16T20:18:12.461Z,59.30
2018-12-16T20:20:40.732Z,59.60
2018-12-16T20:23:14.061Z,59.80
2018-12-16T20:25:51.334Z,60.00
2018-12-16T20:28:20.639Z,59.30
2018-12-16T20:30:50.234Z,59.20
2018-12-16T20:33:47.553Z,59.50
2018-12-16T20:36:34.083Z,59.70
2018-12-16T20:39:31.748Z,59.60
2018-12-16T20:42:00.571Z,59.60
2018-12-16T20:44:34.810Z,59.60
2018-12-16T20:47:11.289Z,59.90
2018-12-16T20:49:54.483Z,59.70
2018-12-16T20:52:40.994Z,59.20
2018-12-16T20:55:21.460Z,60.00
2018-12-16T20:57:56.607Z,59.40
2018-12-16T21:00:28.149Z,59.20
2018-12-16T21:03:04.612Z,59.10
2018-12-16T21:05:37.638Z,59.70
2018-12-16T21:08:06.210Z,59.10
2018-12-16T21:10:34.876Z,58.60
2018-12-16T21:13:12.486Z,59.20
2018-12-16T21:15:54.190Z,59.60
2018-12-16T21:18:27.047Z,60.00
2018-12-16T21:21:01.782Z,60.30
2018-12-16T21:23:39.827Z,59.80
2018-12-16T21:26:12.542Z,59.40
2018-12-16T21:28:41.675Z,59.40
2018-12-16T21:31:10.114Z,59.30
2018-12-16T21:33:38.621Z,59.40
2018-12-16T21:36:06.835Z,60.00
2018-12-16T21:38:35.025Z,60.20
2018-12-16T21:41:15.149Z,60.40
2018-12-16T21:43:45.854Z,60.20
2018-12-16T21:46:17.519Z,60.30
2018-12-16T21:48:49.667Z,60.40
2018-12-16T21:51:17.941Z,60.20
2018-12-16T21:53:48.804Z,60.70
2018-12-16T21:56:20.313Z,60.70
2018-12-16T21:58:48.575Z,60.00
2018-12-16T22:01:16.791Z,60.10
2018-12-16T22:03:50.862Z,60.80
2018-12-16T22:06:22.185Z,60.60
2018-12-16T22:08:56.693Z,60.40
2018-12-16T22:11:27.878Z,60.30
2018-12-16T22:13:59.738Z,60.30
2018-12-16T22:16:33.957Z,60.40
2018-12-16T22:19:11.807Z,60.40
2018-12-16T22:21:46.589Z,60.20
2018-12-16T22:24:20.645Z,59.90
2018-12-16T22:26:51.889Z,60.10
2018-12-16T22:29:24.076Z,59.90
2018-12-16T22:31:58.203Z,60.00
2018-12-16T22:34:27.742Z,59.90
2018-12-16T22:36:57.851Z,59.90
2018-12-16T22:39:26.153Z,60.00
2018-12-16T22:41:54.302Z,59.60
2018-12-16T22:44:28.497Z,59.10
2018-12-16T22:46:59.881Z,58.80
2018-12-16T22:49:29.885Z,58.90
2018-12-16T22:52:01.533Z,58.80
2018-12-16T22:54:33.542Z,58.80
2018-12-16T22:57:03.390Z,58.70
2018-12-16T22:59:35.433Z,58.50
2018-12-16T23:02:07.519Z,58.50
2018-12-16T23:04:41.636Z,58.30
2018-12-16T23:07:13.162Z,58.50
2018-12-16T23:09:47.594Z,58.70
2018-12-16T23:12:29.710Z,59.20
2018-12-16T23:15:04.509Z,59.10
2018-12-16T23:17:35.781Z,59.00
2018-12-16T23:20:20.541Z,59.00
2018-12-16T23:22:51.895Z,59.00
2018-12-16T23:25:32.357Z,59.20
2018-12-16T23:28:06.625Z,59.20
2018-12-16T23:30:44.358Z,59.00
2018-12-16T23:33:15.994Z,59.30
2018-12-16T23:35:48.011Z,60.40
2018-12-16T23:38:30.777Z,60.60
2018-12-16T23:41:02.176Z,60.00
2018-12-16T23:43:35.785Z,59.60
2018-12-16T23:46:07.408Z,59.70
2018-12-16T23:48:35.795Z,60.70
2018-12-16T23:51:04.310Z,61.10
2018-12-16T23:53:32.611Z,61.20
2018-12-16T23:56:04.196Z,61.20
2018-12-16T23:58:32.859Z,60.70
